Time;durP1;ratioP1;P1;durP2;ratioP2;P2;SDS_P1;SDS_P2;PMS_P1;PMS_P2;Temp;Humidity;BMP_temperature;BMP_pressure;BME280_temperature;BME280_humidity;BME280_pressure;Samples;Min_cycle;Max_cycle;Signal;HPM_P1;HPM_P2
2023/06/14 00:01:02;;;;;;;4.75;3.33;;;;;;;;;;4981584;28;102014;-78
2023/06/14 00:03:29;;;;;;;5.75;2.83;;;;;;;;;;4987354;28;100689;-78
2023/06/14 00:05:57;;;;;;;5.72;2.70;;;;;;;;;;4987672;28;99962;-78
2023/06/14 00:08:25;;;;;;;8.32;2.90;;;;;;;;;;4988134;28;99549;-78
2023/06/14 00:10:52;;;;;;;10.57;2.95;;;;;;;;;;4987082;28;99274;-78
2023/06/14 00:13:18;;;;;;;7.38;2.70;;;;;;;;;;4988125;28;99938;-78
2023/06/14 00:15:46;;;;;;;6.57;3.45;;;;;;;;;;4995728;27;99473;-78
2023/06/14 00:18:12;;;;;;;6.75;2.97;;;;;;;;;;4986066;28;98913;-78
2023/06/14 00:20:41;;;;;;;5.70;2.95;;;;;;;;;;4990710;28;98364;-77
2023/06/14 00:23:08;;;;;;;6.90;3.60;;;;;;;;;;4987977;28;99752;-79
2023/06/14 00:25:35;;;;;;;4.75;2.45;;;;;;;;;;4991482;28;99180;-78
2023/06/14 00:28:02;;;;;;;5.85;3.05;;;;;;;;;;4988407;28;100131;-78
2023/06/14 00:30:30;;;;;;;11.90;3.05;;;;;;;;;;4985545;28;99490;-78
2023/06/14 00:32:57;;;;;;;9.02;2.70;;;;;;;;;;4988078;28;100859;-79
2023/06/14 00:35:25;;;;;;;9.48;3.03;;;;;;;;;;4988346;28;99046;-78
2023/06/14 00:37:51;;;;;;;6.63;3.15;;;;;;;;;;4986816;28;99226;-78
2023/06/14 00:40:18;;;;;;;9.02;3.95;;;;;;;;;;4988153;28;98939;-78
2023/06/14 00:42:44;;;;;;;11.65;3.53;;;;;;;;;;4988378;28;99170;-78
2023/06/14 00:45:12;;;;;;;5.13;2.88;;;;;;;;;;4990494;28;99038;-78
2023/06/14 00:47:41;;;;;;;11.32;2.90;;;;;;;;;;4988344;28;98506;-78
2023/06/14 00:50:09;;;;;;;7.63;2.78;;;;;;;;;;4985732;28;99056;-78
2023/06/14 00:52:36;;;;;;;7.57;3.50;;;;;;;;;;4986935;28;98454;-78
2023/06/14 00:55:02;;;;;;;12.27;2.75;;;;;;;;;;4985904;28;102787;-78
2023/06/14 00:57:29;;;;;;;7.70;2.75;;;;;;;;;;4988104;28;99024;-79
2023/06/14 00:59:58;;;;;;;15.55;2.60;;;;;;;;;;4986991;28;99019;-78
2023/06/14 01:02:25;;;;;;;13.15;3.13;;;;;;;;;;4987043;28;99452;-80
2023/06/14 01:04:52;;;;;;;5.28;2.72;;;;;;;;;;4988029;28;98819;-78
2023/06/14 01:07:38;;;;;;;5.97;2.88;;;;;;;;;;4989655;28;99836;-79
2023/06/14 01:10:07;;;;;;;11.50;2.42;;;;;;;;;;4986892;28;98785;-79
2023/06/14 01:12:42;;;;;;;2.92;2.60;;;;;;;;;;4985202;28;99246;-79
2023/06/14 01:15:09;;;;;;;11.00;2.75;;;;;;;;;;4985213;28;101357;-79
2023/06/14 01:17:43;;;;;;;7.15;2.45;;;;;;;;;;4986112;28;98991;-78
2023/06/14 01:20:17;;;;;;;4.57;2.53;;;;;;;;;;4984807;28;99342;-78
2023/06/14 01:22:53;;;;;;;4.78;3.05;;;;;;;;;;4987330;28;99638;-79
2023/06/14 01:25:22;;;;;;;12.75;3.40;;;;;;;;;;4985848;28;102089;-79
2023/06/14 01:27:58;;;;;;;8.73;2.78;;;;;;;;;;4984922;28;102099;-80
2023/06/14 01:30:25;;;;;;;18.70;3.22;;;;;;;;;;4990778;28;99108;-79
2023/06/14 01:32:54;;;;;;;10.25;2.53;;;;;;;;;;4987261;28;99087;-79
2023/06/14 01:35:21;;;;;;;14.73;2.92;;;;;;;;;;4986372;28;100086;-79
2023/06/14 01:37:48;;;;;;;6.85;3.58;;;;;;;;;;4987397;28;99840;-79
2023/06/14 01:40:15;;;;;;;6.45;2.55;;;;;;;;;;4987166;28;99525;-79
2023/06/14 01:42:44;;;;;;;10.25;2.70;;;;;;;;;;4985067;28;100114;-79
2023/06/14 01:45:11;;;;;;;5.00;2.63;;;;;;;;;;4986259;28;99225;-79
2023/06/14 01:47:37;;;;;;;6.63;2.85;;;;;;;;;;4986154;28;99861;-79
2023/06/14 01:50:04;;;;;;;6.57;2.63;;;;;;;;;;4986418;28;99836;-79
2023/06/14 01:52:31;;;;;;;10.85;2.80;;;;;;;;;;4990139;28;100081;-79
2023/06/14 01:54:57;;;;;;;10.95;3.08;;;;;;;;;;4984182;28;99985;-79
2023/06/14 01:57:25;;;;;;;5.53;2.90;;;;;;;;;;4987053;28;98942;-79
2023/06/14 01:59:51;;;;;;;10.85;2.90;;;;;;;;;;4985632;28;99841;-79
2023/06/14 02:02:18;;;;;;;5.68;2.60;;;;;;;;;;4986309;28;100761;-79
2023/06/14 02:04:47;;;;;;;11.55;2.80;;;;;;;;;;4987056;28;98712;-79
2023/06/14 02:07:14;;;;;;;4.55;2.92;;;;;;;;;;4973645;28;99829;-79
2023/06/14 02:09:41;;;;;;;7.63;2.95;;;;;;;;;;4980621;28;101701;-79
2023/06/14 02:12:07;;;;;;;17.10;3.20;;;;;;;;;;4986792;28;98764;-79
2023/06/14 02:14:34;;;;;;;9.85;2.75;;;;;;;;;;4988767;28;101114;-80
2023/06/14 02:17:00;;;;;;;4.63;2.55;;;;;;;;;;4986335;28;98575;-79
2023/06/14 02:19:27;;;;;;;7.80;3.72;;;;;;;;;;4984184;28;101738;-79
2023/06/14 02:21:53;;;;;;;4.78;3.00;;;;;;;;;;4987039;28;99210;-79
2023/06/14 02:24:20;;;;;;;3.83;2.38;;;;;;;;;;4986439;28;98763;-80
2023/06/14 02:26:47;;;;;;;7.18;2.78;;;;;;;;;;4986059;28;100966;-80
2023/06/14 02:29:14;;;;;;;11.18;3.40;;;;;;;;;;4987090;28;100338;-79
2023/06/14 02:31:41;;;;;;;4.35;2.72;;;;;;;;;;4986354;28;99040;-80
2023/06/14 02:34:10;;;;;;;4.38;2.78;;;;;;;;;;4987039;28;99175;-79
2023/06/14 02:36:41;;;;;;;5.63;3.40;;;;;;;;;;4988406;28;102004;-79
2023/06/14 02:39:11;;;;;;;6.10;2.70;;;;;;;;;;4985535;28;99902;-79
2023/06/14 02:41:38;;;;;;;4.90;2.60;;;;;;;;;;4986521;28;99446;-79
2023/06/14 02:44:05;;;;;;;3.90;2.40;;;;;;;;;;4986153;28;98875;-79
2023/06/14 02:46:31;;;;;;;6.07;2.70;;;;;;;;;;4986831;28;99219;-79
2023/06/14 02:48:58;;;;;;;12.27;2.80;;;;;;;;;;4985306;28;101764;-80
2023/06/14 02:51:24;;;;;;;19.40;3.50;;;;;;;;;;4986263;28;98701;-79
2023/06/14 02:53:51;;;;;;;5.32;2.55;;;;;;;;;;4986461;28;98443;-80
2023/06/14 02:56:19;;;;;;;9.98;2.80;;;;;;;;;;4990196;28;99183;-79
2023/06/14 02:58:48;;;;;;;7.68;3.45;;;;;;;;;;4988582;28;99951;-79
2023/06/14 03:01:16;;;;;;;5.30;2.65;;;;;;;;;;4991246;28;101366;-78
2023/06/14 03:03:43;;;;;;;11.10;2.65;;;;;;;;;;4991480;28;101780;-79
2023/06/14 03:06:13;;;;;;;9.10;2.88;;;;;;;;;;4999388;28;101598;-79
2023/06/14 03:08:43;;;;;;;4.53;2.45;;;;;;;;;;5003426;27;101208;-79
2023/06/14 03:11:14;;;;;;;13.35;3.67;;;;;;;;;;5001177;27;100031;-78
2023/06/14 03:13:41;;;;;;;9.95;2.72;;;;;;;;;;5000556;27;100814;-80
2023/06/14 03:16:10;;;;;;;8.55;2.75;;;;;;;;;;4999569;28;99777;-80
2023/06/14 03:18:38;;;;;;;5.18;2.35;;;;;;;;;;5002270;27;101322;-80
2023/06/14 03:21:07;;;;;;;4.40;2.80;;;;;;;;;;4994014;28;101246;-81
2023/06/14 03:23:33;;;;;;;14.68;2.70;;;;;;;;;;4989159;28;99323;-79
2023/06/14 03:26:02;;;;;;;6.95;2.72;;;;;;;;;;4991825;28;101846;-79
2023/06/14 03:28:29;;;;;;;2.58;2.38;;;;;;;;;;4993005;28;100460;-81
2023/06/14 03:30:57;;;;;;;7.93;2.85;;;;;;;;;;4990632;28;100157;-79
2023/06/14 03:33:25;;;;;;;3.67;2.22;;;;;;;;;;4990736;28;98946;-79
2023/06/14 03:35:52;;;;;;;5.40;2.70;;;;;;;;;;4990294;28;99257;-79
2023/06/14 03:38:20;;;;;;;7.60;2.90;;;;;;;;;;4991085;28;101784;-80
2023/06/14 03:40:46;;;;;;;5.25;2.70;;;;;;;;;;4995970;28;101501;-79
2023/06/14 03:43:13;;;;;;;6.13;2.72;;;;;;;;;;4997376;28;99869;-80
2023/06/14 03:45:40;;;;;;;4.95;2.90;;;;;;;;;;4998364;28;101064;-80
2023/06/14 03:48:08;;;;;;;4.35;2.75;;;;;;;;;;4982532;28;102762;-80
2023/06/14 03:50:37;;;;;;;4.40;3.05;;;;;;;;;;5002351;28;99568;-79
2023/06/14 03:53:06;;;;;;;9.07;2.90;;;;;;;;;;5002189;28;103159;-80
2023/06/14 03:55:33;;;;;;;8.68;2.97;;;;;;;;;;5001251;28;101282;-79
2023/06/14 03:58:03;;;;;;;4.35;2.72;;;;;;;;;;5003336;28;101577;-79
2023/06/14 04:00:32;;;;;;;5.90;2.45;;;;;;;;;;5005589;28;100695;-80
2023/06/14 04:02:58;;;;;;;6.80;2.55;;;;;;;;;;4992404;28;99901;-80
2023/06/14 04:05:26;;;;;;;10.23;2.92;;;;;;;;;;5008041;28;98436;-80
2023/06/14 04:07:55;;;;;;;7.70;2.95;;;;;;;;;;5003977;28;101013;-80
2023/06/14 04:10:22;;;;;;;9.45;2.88;;;;;;;;;;5001453;28;98842;-80
2023/06/14 04:12:49;;;;;;;9.43;3.17;;;;;;;;;;5002494;28;99120;-80
2023/06/14 04:15:16;;;;;;;7.07;3.08;;;;;;;;;;4997391;28;100085;-80
2023/06/14 04:17:50;;;;;;;5.50;2.60;;;;;;;;;;4995768;28;98889;-80
2023/06/14 04:20:19;;;;;;;7.32;2.70;;;;;;;;;;4997925;28;99378;-80
2023/06/14 04:22:46;;;;;;;6.93;2.63;;;;;;;;;;4999962;28;100287;-80
2023/06/14 04:25:13;;;;;;;4.97;2.63;;;;;;;;;;5002939;28;100839;-80
2023/06/14 04:27:41;;;;;;;7.47;2.55;;;;;;;;;;5003848;28;100099;-80
2023/06/14 04:30:09;;;;;;;3.72;2.38;;;;;;;;;;5006210;28;98873;-80
2023/06/14 04:32:42;;;;;;;9.32;2.75;;;;;;;;;;5006050;28;99463;-81
2023/06/14 04:35:11;;;;;;;6.82;2.90;;;;;;;;;;5004598;28;99139;-79
2023/06/14 04:37:41;;;;;;;8.50;3.20;;;;;;;;;;5005236;28;102043;-80
2023/06/14 04:40:08;;;;;;;5.55;2.78;;;;;;;;;;4996180;28;101442;-80
2023/06/14 04:42:40;;;;;;;7.65;2.85;;;;;;;;;;5002238;28;100296;-80
2023/06/14 04:45:09;;;;;;;4.97;3.15;;;;;;;;;;4996967;28;100557;-80
2023/06/14 04:47:37;;;;;;;5.53;2.67;;;;;;;;;;5001124;28;100515;-80
2023/06/14 04:50:05;;;;;;;6.95;3.15;;;;;;;;;;4997219;28;101237;-80
2023/06/14 04:52:32;;;;;;;5.25;3.13;;;;;;;;;;5003474;28;98575;-80
2023/06/14 04:54:59;;;;;;;8.70;2.67;;;;;;;;;;5005769;28;100454;-80
2023/06/14 04:57:26;;;;;;;6.88;3.00;;;;;;;;;;5006530;28;100112;-80
2023/06/14 04:59:57;;;;;;;3.70;2.88;;;;;;;;;;5005270;28;98877;-79
2023/06/14 05:02:25;;;;;;;5.82;3.00;;;;;;;;;;5004808;28;99129;-80
2023/06/14 05:04:53;;;;;;;6.90;2.90;;;;;;;;;;5006723;28;101476;-80
2023/06/14 05:07:20;;;;;;;8.30;2.80;;;;;;;;;;5010079;28;99381;-80
2023/06/14 05:09:48;;;;;;;4.40;2.88;;;;;;;;;;5003560;28;100377;-81
2023/06/14 05:12:18;;;;;;;12.90;3.15;;;;;;;;;;5002805;28;99796;-80
2023/06/14 05:14:45;;;;;;;9.15;3.30;;;;;;;;;;5001262;28;101336;-80
2023/06/14 05:17:11;;;;;;;2.92;2.60;;;;;;;;;;5001178;28;101906;-79
2023/06/14 05:19:38;;;;;;;6.25;2.97;;;;;;;;;;4999697;28;99301;-81
2023/06/14 05:22:04;;;;;;;8.93;3.13;;;;;;;;;;4999269;28;100031;-80
2023/06/14 05:24:32;;;;;;;3.78;2.97;;;;;;;;;;4991361;28;99977;-79
2023/06/14 05:26:59;;;;;;;5.40;2.63;;;;;;;;;;4990063;28;99912;-79
2023/06/14 05:29:25;;;;;;;4.45;3.10;;;;;;;;;;4992233;28;99593;-79
2023/06/14 05:31:55;;;;;;;7.43;3.28;;;;;;;;;;4990531;28;100056;-78
2023/06/14 05:34:22;;;;;;;6.60;2.80;;;;;;;;;;4991816;28;99487;-82
2023/06/14 05:36:49;;;;;;;5.38;3.00;;;;;;;;;;4995512;28;98893;-79
2023/06/14 05:39:16;;;;;;;3.70;3.00;;;;;;;;;;4989636;28;98871;-80
2023/06/14 05:41:43;;;;;;;4.25;2.70;;;;;;;;;;4987411;28;100324;-79
2023/06/14 05:44:09;;;;;;;10.30;3.03;;;;;;;;;;4988029;28;99842;-81
2023/06/14 05:46:36;;;;;;;11.10;2.70;;;;;;;;;;4986511;28;98695;-80
2023/06/14 05:49:02;;;;;;;13.07;3.20;;;;;;;;;;4986386;28;100146;-81
2023/06/14 05:51:29;;;;;;;8.93;2.50;;;;;;;;;;4990687;28;99652;-80
2023/06/14 05:53:57;;;;;;;11.65;3.05;;;;;;;;;;4986161;28;100236;-79
2023/06/14 05:56:23;;;;;;;11.50;2.53;;;;;;;;;;4987497;28;101189;-80
2023/06/14 05:58:50;;;;;;;6.88;2.78;;;;;;;;;;4986838;28;99929;-80
2023/06/14 06:01:17;;;;;;;6.50;2.95;;;;;;;;;;4984546;28;99345;-77
2023/06/14 06:03:46;;;;;;;8.75;3.30;;;;;;;;;;4974702;28;99898;-81
2023/06/14 06:06:13;;;;;;;14.55;2.80;;;;;;;;;;4984421;28;100000;-80
2023/06/14 06:08:40;;;;;;;7.93;2.95;;;;;;;;;;4986667;28;99714;-75
2023/06/14 06:11:07;;;;;;;4.40;2.75;;;;;;;;;;4983232;28;98939;-76
2023/06/14 06:13:34;;;;;;;5.60;3.33;;;;;;;;;;4988487;28;100092;-78
2023/06/14 06:16:01;;;;;;;5.93;2.50;;;;;;;;;;4984514;28;99809;-78
2023/06/14 06:18:28;;;;;;;8.07;2.60;;;;;;;;;;4985970;28;100647;-78
2023/06/14 06:20:55;;;;;;;4.95;2.83;;;;;;;;;;4983628;28;100315;-77
2023/06/14 06:23:21;;;;;;;15.32;2.75;;;;;;;;;;4973365;28;99434;-79
2023/06/14 06:25:48;;;;;;;6.05;2.58;;;;;;;;;;4981228;28;100080;-77
2023/06/14 06:28:15;;;;;;;5.47;2.75;;;;;;;;;;4981705;28;100145;-77
2023/06/14 06:30:41;;;;;;;6.22;2.38;;;;;;;;;;4985716;28;100131;-76
2023/06/14 06:33:08;;;;;;;5.93;2.33;;;;;;;;;;4986747;28;98971;-79
2023/06/14 06:35:34;;;;;;;7.15;2.67;;;;;;;;;;4985266;28;100304;-75
2023/06/14 06:38:01;;;;;;;7.35;3.40;;;;;;;;;;4985118;28;100038;-77
2023/06/14 06:40:27;;;;;;;6.80;3.40;;;;;;;;;;4978425;28;100828;-77
2023/06/14 06:42:54;;;;;;;6.47;2.70;;;;;;;;;;4966967;28;99419;-79
2023/06/14 06:45:21;;;;;;;3.40;2.38;;;;;;;;;;4972699;28;98837;-76
2023/06/14 06:47:51;;;;;;;10.60;2.55;;;;;;;;;;4987157;28;100340;-76
2023/06/14 06:50:18;;;;;;;6.93;2.42;;;;;;;;;;4988619;28;99015;-76
2023/06/14 06:52:45;;;;;;;8.20;2.67;;;;;;;;;;4988829;28;99831;-77
2023/06/14 06:55:11;;;;;;;11.20;2.60;;;;;;;;;;4988822;28;100116;-77
2023/06/14 06:57:38;;;;;;;6.15;2.70;;;;;;;;;;4992132;28;98440;-76
2023/06/14 07:00:08;;;;;;;6.05;2.60;;;;;;;;;;4989469;28;99479;-77
2023/06/14 07:02:35;;;;;;;3.00;2.50;;;;;;;;;;4989494;28;99766;-76
2023/06/14 07:05:01;;;;;;;3.30;2.30;;;;;;;;;;4988227;28;99152;-76
2023/06/14 07:07:28;;;;;;;4.80;2.75;;;;;;;;;;4989689;28;99567;-77
2023/06/14 07:09:57;;;;;;;4.15;2.60;;;;;;;;;;4989373;28;100438;-77
2023/06/14 07:12:23;;;;;;;7.95;2.42;;;;;;;;;;4988803;28;99940;-77
2023/06/14 07:14:50;;;;;;;9.48;2.33;;;;;;;;;;4989559;28;100355;-77
2023/06/14 07:17:16;;;;;;;9.93;2.50;;;;;;;;;;4992309;28;98881;-76
2023/06/14 07:19:43;;;;;;;12.20;2.47;;;;;;;;;;4988023;28;100155;-76
2023/06/14 07:22:10;;;;;;;9.52;2.35;;;;;;;;;;4988962;28;99104;-76
2023/06/14 07:24:37;;;;;;;9.77;2.25;;;;;;;;;;4990009;28;99444;-77
2023/06/14 07:27:04;;;;;;;5.00;2.05;;;;;;;;;;4988414;28;100456;-77
2023/06/14 07:29:30;;;;;;;13.30;3.38;;;;;;;;;;4988836;28;99942;-77
2023/06/14 07:31:56;;;;;;;3.65;1.83;;;;;;;;;;4988883;28;100573;-77
2023/06/14 07:34:26;;;;;;;7.32;2.80;;;;;;;;;;4987889;28;99393;-76
2023/06/14 07:36:54;;;;;;;9.00;2.38;;;;;;;;;;4989031;28;99978;-76
2023/06/14 07:39:20;;;;;;;4.60;1.98;;;;;;;;;;4991325;28;99014;-77
2023/06/14 07:41:46;;;;;;;4.18;2.33;;;;;;;;;;4986688;28;99636;-78
2023/06/14 07:44:13;;;;;;;3.15;2.08;;;;;;;;;;4981286;28;99748;-76
2023/06/14 07:46:40;;;;;;;7.95;1.90;;;;;;;;;;4987597;28;98946;-78
2023/06/14 07:49:06;;;;;;;5.45;1.80;;;;;;;;;;4986088;28;100337;-80
2023/06/14 07:51:33;;;;;;;12.80;2.13;;;;;;;;;;4989152;28;100083;-78
2023/06/14 07:54:02;;;;;;;5.95;2.05;;;;;;;;;;4976658;28;101222;-77
2023/06/14 07:56:28;;;;;;;2.50;1.98;;;;;;;;;;4973561;28;100191;-77
2023/06/14 07:58:55;;;;;;;4.38;1.98;;;;;;;;;;4976955;28;100277;-76
2023/06/14 08:01:24;;;;;;;5.55;1.73;;;;;;;;;;4987588;28;101549;-75
2023/06/14 08:03:50;;;;;;;5.53;1.98;;;;;;;;;;4988169;28;99796;-76
2023/06/14 08:06:17;;;;;;;8.27;2.03;;;;;;;;;;4982245;28;99855;-76
2023/06/14 08:08:43;;;;;;;4.07;1.73;;;;;;;;;;4984975;28;100122;-76
2023/06/14 08:11:10;;;;;;;2.40;1.60;;;;;;;;;;4988426;28;100065;-76
2023/06/14 08:13:36;;;;;;;7.10;1.67;;;;;;;;;;4988405;28;99149;-77
2023/06/14 08:16:05;;;;;;;1.85;1.70;;;;;;;;;;4986996;28;99544;-76
2023/06/14 08:18:31;;;;;;;8.45;1.77;;;;;;;;;;4987016;28;100006;-76
2023/06/14 08:20:58;;;;;;;1.92;1.52;;;;;;;;;;4987806;28;99444;-74
2023/06/14 08:23:24;;;;;;;4.32;1.70;;;;;;;;;;4990844;28;100279;-79
2023/06/14 08:25:51;;;;;;;6.10;1.70;;;;;;;;;;4987969;28;99198;-77
2023/06/14 08:28:17;;;;;;;1.70;1.40;;;;;;;;;;4987436;28;99173;-77
2023/06/14 08:30:43;;;;;;;4.55;1.80;;;;;;;;;;4987171;28;98987;-76
2023/06/14 08:33:11;;;;;;;2.35;1.40;;;;;;;;;;4987985;28;100600;-75
2023/06/14 08:35:42;;;;;;;;;;;;;;;;;;4987647;28;98929;-76
2023/06/14 08:38:10;;;;;;;5.97;1.75;;;;;;;;;;4986684;28;128482;-76
2023/06/14 08:40:38;;;;;;;6.00;1.73;;;;;;;;;;4987826;28;99841;-76
2023/06/14 08:43:05;;;;;;;5.45;1.50;;;;;;;;;;4986001;28;100210;-76
2023/06/14 08:45:32;;;;;;;5.18;1.20;;;;;;;;;;4986458;28;100652;-76
2023/06/14 08:47:59;;;;;;;2.25;1.63;;;;;;;;;;4967849;28;100098;-76
2023/06/14 08:50:29;;;;;;;3.40;1.83;;;;;;;;;;4967444;28;99040;-75
2023/06/14 08:53:02;;;;;;;4.80;1.50;;;;;;;;;;4968202;28;100512;-75
2023/06/14 08:55:29;;;;;;;1.92;1.27;;;;;;;;;;4973784;28;99020;-75
2023/06/14 08:57:59;;;;;;;1.65;1.48;;;;;;;;;;4986569;28;99592;-76
2023/06/14 09:00:26;;;;;;;1.15;1.15;;;;;;;;;;4988606;28;98780;-76
2023/06/14 09:02:59;;;;;;;4.22;1.80;;;;;;;;;;4988527;28;99042;-75
2023/06/14 09:05:26;;;;;;;1.33;1.15;;;;;;;;;;4991016;28;98971;-75
2023/06/14 09:07:56;;;;;;;3.53;1.27;;;;;;;;;;4987670;28;99237;-75
2023/06/14 09:10:25;;;;;;;2.75;1.23;;;;;;;;;;4986906;28;100649;-76
2023/06/14 09:12:53;;;;;;;1.80;1.30;;;;;;;;;;4987213;28;99596;-76
2023/06/14 09:15:20;;;;;;;2.03;1.15;;;;;;;;;;4987566;28;100325;-75
2023/06/14 09:17:47;;;;;;;7.55;1.50;;;;;;;;;;4987435;28;99752;-76
2023/06/14 09:20:17;;;;;;;3.50;1.50;;;;;;;;;;4987252;28;99968;-76
2023/06/14 09:22:45;;;;;;;1.50;1.40;;;;;;;;;;4967671;28;99907;-76
2023/06/14 09:25:15;;;;;;;8.40;1.58;;;;;;;;;;4966995;28;99923;-74
2023/06/14 09:27:58;;;;;;;2.97;1.70;;;;;;;;;;4970531;28;99136;-76
2023/06/14 09:30:25;;;;;;;4.32;2.20;;;;;;;;;;4967005;28;100058;-76
2023/06/14 09:32:51;;;;;;;1.85;1.30;;;;;;;;;;4966207;28;100935;-76
2023/06/14 09:35:18;;;;;;;4.32;1.77;;;;;;;;;;4966966;28;99920;-76
2023/06/14 09:37:44;;;;;;;2.28;1.25;;;;;;;;;;4966695;28;98524;-75
2023/06/14 09:40:11;;;;;;;7.68;1.50;;;;;;;;;;4966595;28;100475;-77
2023/06/14 09:42:37;;;;;;;2.22;1.80;;;;;;;;;;4968025;28;98875;-76
2023/06/14 09:45:04;;;;;;;4.43;1.90;;;;;;;;;;4967384;28;99254;-76
2023/06/14 09:47:31;;;;;;;1.95;1.58;;;;;;;;;;4967512;28;100183;-77
2023/06/14 09:49:57;;;;;;;1.98;1.40;;;;;;;;;;4990035;28;99284;-76
2023/06/14 09:52:26;;;;;;;5.00;1.60;;;;;;;;;;4987091;28;100420;-77
2023/06/14 09:54:54;;;;;;;6.75;1.30;;;;;;;;;;4986219;28;99190;-76
2023/06/14 09:57:22;;;;;;;4.55;1.30;;;;;;;;;;4985403;28;99273;-77
2023/06/14 09:59:52;;;;;;;1.40;1.25;;;;;;;;;;4987126;28;100092;-76
2023/06/14 10:02:23;;;;;;;1.00;1.00;;;;;;;;;;4985404;28;98986;-77
2023/06/14 10:05:03;;;;;;;2.08;1.50;;;;;;;;;;4987182;28;99978;-78
2023/06/14 10:07:32;;;;;;;3.70;1.33;;;;;;;;;;4986300;28;100003;-77
2023/06/14 10:09:59;;;;;;;5.85;1.38;;;;;;;;;;4981392;28;100258;-77
2023/06/14 10:12:27;;;;;;;4.68;1.67;;;;;;;;;;4982737;28;99983;-78
2023/06/14 10:14:55;;;;;;;1.55;1.40;;;;;;;;;;4985898;28;100079;-78
2023/06/14 10:17:35;;;;;;;1.67;1.58;;;;;;;;;;4986708;28;100377;-78
2023/06/14 10:20:04;;;;;;;4.80;1.38;;;;;;;;;;4986489;28;100367;-76
2023/06/14 10:22:37;;;;;;;8.02;1.42;;;;;;;;;;4986731;28;99270;-75
2023/06/14 10:25:11;;;;;;;3.75;1.48;;;;;;;;;;4979755;28;100582;-76
2023/06/14 10:27:38;;;;;;;2.45;1.50;;;;;;;;;;4970597;28;100202;-76
2023/06/14 10:30:07;;;;;;;2.58;1.27;;;;;;;;;;4969258;28;99879;-76
2023/06/14 10:32:34;;;;;;;7.78;1.60;;;;;;;;;;4970308;28;100128;-76
2023/06/14 10:35:17;;;;;;;4.68;1.60;;;;;;;;;;4973133;28;100024;-76
2023/06/14 10:37:46;;;;;;;1.25;1.13;;;;;;;;;;4969895;28;99857;-77
2023/06/14 10:40:29;;;;;;;10.05;1.75;;;;;;;;;;4970875;28;98310;-76
2023/06/14 10:42:56;;;;;;;6.57;1.40;;;;;;;;;;4969417;28;99029;-76
2023/06/14 10:45:23;;;;;;;3.08;1.75;;;;;;;;;;4974300;28;98837;-76
2023/06/14 10:47:52;;;;;;;5.20;1.80;;;;;;;;;;4989630;28;100496;-77
2023/06/14 10:50:27;;;;;;;3.35;1.35;;;;;;;;;;4988548;28;99920;-76
2023/06/14 10:52:53;;;;;;;1.58;1.42;;;;;;;;;;4990024;28;100622;-74
2023/06/14 10:55:22;;;;;;;6.13;1.50;;;;;;;;;;4989407;28;100299;-77
2023/06/14 10:57:56;;;;;;;6.20;1.65;;;;;;;;;;4992271;28;99291;-74
2023/06/14 11:00:24;;;;;;;6.32;1.33;;;;;;;;;;4989875;28;101361;-75
2023/06/14 11:03:15;;;;;;;5.28;1.33;;;;;;;;;;4989550;28;100006;-75
2023/06/14 11:05:48;;;;;;;5.45;1.73;;;;;;;;;;4989017;28;99527;-75
2023/06/14 11:08:29;;;;;;;7.93;1.60;;;;;;;;;;4989577;28;99457;-75
2023/06/14 11:10:58;;;;;;;1.88;1.30;;;;;;;;;;4988687;28;99040;-76
2023/06/14 11:13:25;;;;;;;7.97;1.75;;;;;;;;;;4989395;28;99992;-76
2023/06/14 11:15:57;;;;;;;7.45;1.52;;;;;;;;;;4989764;28;100180;-76
2023/06/14 11:18:24;;;;;;;1.52;1.42;;;;;;;;;;4992042;28;98844;-75
2023/06/14 11:20:51;;;;;;;2.55;1.50;;;;;;;;;;4989713;28;99303;-76
2023/06/14 11:23:17;;;;;;;2.55;1.25;;;;;;;;;;4989188;28;98997;-76
2023/06/14 11:25:49;;;;;;;2.88;1.23;;;;;;;;;;4988344;28;99515;-75
2023/06/14 11:28:15;;;;;;;1.50;1.13;;;;;;;;;;4989116;28;100142;-76
2023/06/14 11:30:42;;;;;;;4.40;1.45;;;;;;;;;;4989893;28;99857;-76
2023/06/14 11:33:09;;;;;;;1.88;1.40;;;;;;;;;;4987944;28;98394;-76
2023/06/14 11:35:36;;;;;;;1.73;1.38;;;;;;;;;;4989012;28;99331;-76
2023/06/14 11:38:02;;;;;;;5.05;1.70;;;;;;;;;;4988117;28;99345;-77
2023/06/14 11:40:29;;;;;;;1.85;1.23;;;;;;;;;;4992367;28;100101;-76
2023/06/14 11:42:59;;;;;;;4.60;1.60;;;;;;;;;;4988830;28;99985;-75
2023/06/14 11:45:26;;;;;;;5.75;1.55;;;;;;;;;;4990105;28;100100;-76
2023/06/14 11:47:54;;;;;;;1.98;1.38;;;;;;;;;;4988431;28;100147;-76
2023/06/14 11:50:21;;;;;;;3.50;1.48;;;;;;;;;;4988867;28;100418;-76
2023/06/14 11:52:56;;;;;;;7.65;2.40;;;;;;;;;;4987950;28;99105;-75
2023/06/14 11:55:23;;;;;;;1.55;1.48;;;;;;;;;;4988987;28;99427;-77
2023/06/14 11:57:49;;;;;;;2.47;1.73;;;;;;;;;;4973271;28;99154;-77
2023/06/14 12:00:17;;;;;;;7.05;2.60;;;;;;;;;;4967963;28;100031;-76
2023/06/14 12:02:52;;;;;;;4.68;1.73;;;;;;;;;;4971809;28;100021;-76
2023/06/14 12:05:21;;;;;;;1.98;1.58;;;;;;;;;;4968751;28;99955;-76
2023/06/14 12:07:48;;;;;;;12.68;1.52;;;;;;;;;;4968134;28;99950;-76
2023/06/14 12:10:15;;;;;;;2.63;1.33;;;;;;;;;;4970111;28;98872;-76
2023/06/14 12:12:41;;;;;;;9.38;1.60;;;;;;;;;;4972377;28;99925;-77
2023/06/14 12:15:09;;;;;;;3.22;1.63;;;;;;;;;;4987855;28;100198;-74
2023/06/14 12:17:36;;;;;;;2.22;1.33;;;;;;;;;;4988920;28;100230;-76
2023/06/14 12:20:16;;;;;;;4.93;1.20;;;;;;;;;;4988386;28;100150;-74
2023/06/14 12:22:56;;;;;;;2.05;1.40;;;;;;;;;;4987399;28;99316;-74
2023/06/14 12:25:26;;;;;;;4.40;1.40;;;;;;;;;;4983760;28;100207;-75
2023/06/14 12:27:56;;;;;;;1.60;1.27;;;;;;;;;;4968052;28;99932;-76
2023/06/14 12:30:22;;;;;;;6.75;1.83;;;;;;;;;;4969150;28;100007;-77
2023/06/14 12:32:48;;;;;;;3.40;1.60;;;;;;;;;;4968253;28;99185;-76
2023/06/14 12:35:15;;;;;;;5.53;1.40;;;;;;;;;;4975470;28;102310;-76
2023/06/14 12:37:46;;;;;;;2.22;1.70;;;;;;;;;;4987882;28;100167;-77
2023/06/14 12:40:13;;;;;;;1.45;1.33;;;;;;;;;;4972743;28;99662;-76
2023/06/14 12:42:41;;;;;;;3.47;1.33;;;;;;;;;;4967420;28;100167;-76
2023/06/14 12:45:08;;;;;;;3.13;1.40;;;;;;;;;;4986737;28;99011;-76
2023/06/14 12:47:34;;;;;;;1.50;1.40;;;;;;;;;;4990323;28;99126;-76
2023/06/14 12:50:01;;;;;;;3.65;1.40;;;;;;;;;;4986822;28;99821;-76
2023/06/14 12:52:27;;;;;;;2.63;1.52;;;;;;;;;;4973233;28;99882;-76
2023/06/14 12:54:54;;;;;;;2.75;1.30;;;;;;;;;;4973146;28;100264;-75
2023/06/14 12:57:20;;;;;;;6.22;1.90;;;;;;;;;;4974958;28;100858;-75
2023/06/14 12:59:47;;;;;;;1.67;1.52;;;;;;;;;;4985732;28;98979;-75
2023/06/14 13:02:14;;;;;;;4.35;1.70;;;;;;;;;;4981640;28;100199;-76
2023/06/14 13:04:41;;;;;;;3.10;1.73;;;;;;;;;;4981957;28;100476;-77
2023/06/14 13:07:18;;;;;;;3.80;1.55;;;;;;;;;;5123017;27;98340;-76
2023/06/14 13:09:44;;;;;;;4.18;1.60;;;;;;;;;;5100758;27;100067;-76
2023/06/14 13:12:12;;;;;;;2.20;1.20;;;;;;;;;;5102844;27;98345;-75
2023/06/14 13:14:40;;;;;;;3.90;1.65;;;;;;;;;;5099408;27;98631;-76
2023/06/14 13:17:10;;;;;;;2.40;1.55;;;;;;;;;;5101976;27;99290;-75
2023/06/14 13:19:36;;;;;;;1.35;1.30;;;;;;;;;;5103716;27;98411;-74
2023/06/14 13:22:03;;;;;;;2.35;1.60;;;;;;;;;;5106180;27;99304;-74
2023/06/14 13:24:30;;;;;;;3.95;1.75;;;;;;;;;;5102346;27;101425;-75
2023/06/14 13:26:57;;;;;;;1.50;1.40;;;;;;;;;;5098350;27;98236;-75
2023/06/14 13:29:24;;;;;;;5.63;1.60;;;;;;;;;;5104550;27;100025;-75
2023/06/14 13:31:50;;;;;;;3.67;1.73;;;;;;;;;;5102690;27;98477;-76
2023/06/14 13:34:17;;;;;;;5.75;1.60;;;;;;;;;;5104074;27;98403;-76
2023/06/14 13:36:43;;;;;;;3.20;1.83;;;;;;;;;;5098542;27;99842;-74
2023/06/14 13:39:10;;;;;;;2.00;1.90;;;;;;;;;;5091566;27;99776;-77
2023/06/14 13:41:37;;;;;;;3.83;1.70;;;;;;;;;;5089289;27;99262;-76
2023/06/14 13:44:04;;;;;;;3.70;1.55;;;;;;;;;;5094837;27;100178;-77
2023/06/14 13:46:30;;;;;;;1.73;1.33;;;;;;;;;;5097209;27;99093;-77
2023/06/14 13:49:01;;;;;;;3.08;1.55;;;;;;;;;;5097866;27;99511;-75
2023/06/14 13:51:28;;;;;;;3.60;1.50;;;;;;;;;;5109660;27;98034;-77
2023/06/14 13:53:55;;;;;;;5.90;1.70;;;;;;;;;;5092162;27;98824;-74
2023/06/14 13:56:24;;;;;;;2.03;1.60;;;;;;;;;;5096188;27;99932;-76
2023/06/14 13:58:51;;;;;;;6.45;1.42;;;;;;;;;;5088432;27;98813;-76
2023/06/14 14:01:19;;;;;;;4.63;1.48;;;;;;;;;;5101355;27;99615;-76
2023/06/14 14:03:46;;;;;;;1.52;1.42;;;;;;;;;;5104520;27;98864;-75
2023/06/14 14:06:13;;;;;;;3.72;1.52;;;;;;;;;;5094357;27;98212;-75
2023/06/14 14:08:39;;;;;;;1.70;1.60;;;;;;;;;;5104684;27;98746;-76
2023/06/14 14:11:06;;;;;;;4.28;1.50;;;;;;;;;;5107958;27;99980;-75
2023/06/14 14:13:32;;;;;;;2.00;1.27;;;;;;;;;;5102732;27;99233;-76
2023/06/14 14:15:59;;;;;;;2.00;1.40;;;;;;;;;;5094356;27;100007;-76
2023/06/14 14:18:26;;;;;;;1.75;1.23;;;;;;;;;;5095609;27;98214;-75
2023/06/14 14:20:52;;;;;;;3.58;1.70;;;;;;;;;;5094366;27;99281;-75
2023/06/14 14:23:20;;;;;;;1.92;1.52;;;;;;;;;;5082115;27;100162;-76
2023/06/14 14:25:47;;;;;;;1.65;1.27;;;;;;;;;;5091130;27;98262;-76
2023/06/14 14:28:15;;;;;;;5.28;1.55;;;;;;;;;;5091959;27;99246;-75
2023/06/14 14:30:42;;;;;;;4.05;1.55;;;;;;;;;;5093953;27;99183;-76
2023/06/14 14:33:08;;;;;;;1.30;1.20;;;;;;;;;;5096008;27;98253;-73
2023/06/14 14:35:35;;;;;;;3.20;1.48;;;;;;;;;;5087336;27;100106;-75
2023/06/14 14:38:03;;;;;;;2.70;1.30;;;;;;;;;;5092305;27;98382;-75
2023/06/14 14:40:29;;;;;;;1.30;1.20;;;;;;;;;;5093841;27;98793;-74